createdAt,value
2018-12-22T00:01:08.983Z,10.10
2018-12-22T00:03:37.120Z,10.10
2018-12-22T00:06:05.935Z,10.00
2018-12-22T00:08:34.079Z,10.10
2018-12-22T00:11:02.238Z,10.10
2018-12-22T00:13:30.894Z,10.10
2018-12-22T00:15:59.026Z,10.10
2018-12-22T00:18:27.250Z,10.10
2018-12-22T00:20:55.625Z,10.10
2018-12-22T00:23:23.827Z,10.10
2018-12-22T00:25:51.983Z,10.20
2018-12-22T00:28:22.241Z,10.10
2018-12-22T00:30:50.402Z,10.10
2018-12-22T00:33:18.786Z,10.10
2018-12-22T00:35:47.187Z,10.10
2018-12-22T00:38:15.331Z,10.10
2018-12-22T00:40:43.566Z,10.20
2018-12-22T00:43:12.045Z,10.10
2018-12-22T00:45:40.186Z,10.10
2018-12-22T00:48:08.320Z,10.10
2018-12-22T00:50:36.884Z,10.10
2018-12-22T00:53:05.011Z,10.10
2018-12-22T00:55:33.252Z,10.00
2018-12-22T00:58:01.740Z,10.00
2018-12-22T01:00:29.932Z,10.00
2018-12-22T01:02:58.092Z,10.00
2018-12-22T01:05:26.427Z,10.10
2018-12-22T01:07:54.650Z,10.00
2018-12-22T01:10:22.879Z,10.00
2018-12-22T01:12:51.491Z,10.00
2018-12-22T01:15:19.725Z,10.00
2018-12-22T01:17:47.963Z,10.00
2018-12-22T01:20:16.527Z,10.00
2018-12-22T01:22:44.677Z,10.00
2018-12-22T01:25:12.896Z,10.10
2018-12-22T01:27:41.355Z,10.00
2018-12-22T01:30:09.569Z,10.10
2018-12-22T01:32:37.718Z,10.10
2018-12-22T01:35:06.250Z,10.20
2018-12-22T01:37:34.394Z,10.20
2018-12-22T01:40:02.592Z,10.20
2018-12-22T01:42:31.035Z,10.30
2018-12-22T01:44:59.164Z,10.30
2018-12-22T01:47:27.382Z,10.20
2018-12-22T01:49:55.836Z,10.30
2018-12-22T01:52:24.213Z,10.20
2018-12-22T01:54:52.438Z,10.20
2018-12-22T01:57:21.168Z,10.20
2018-12-22T01:59:49.327Z,10.20
2018-12-22T02:02:17.454Z,10.20
2018-12-22T02:04:46.277Z,10.10
2018-12-22T02:07:14.434Z,10.10
2018-12-22T02:09:42.610Z,10.10
2018-12-22T02:12:10.856Z,10.10
2018-12-22T02:14:39.044Z,10.00
2018-12-22T02:17:07.230Z,10.10
2018-12-22T02:19:35.783Z,10.10
2018-12-22T02:22:04.079Z,10.00
2018-12-22T02:24:32.218Z,10.00
2018-12-22T02:27:00.544Z,10.00
2018-12-22T02:29:28.674Z,9.90
2018-12-22T02:31:56.882Z,9.90
2018-12-22T02:34:25.436Z,9.90
2018-12-22T02:36:53.582Z,9.90
2018-12-22T02:39:22.014Z,9.90
2018-12-22T02:41:50.333Z,9.90
2018-12-22T02:44:18.482Z,9.90
2018-12-22T02:46:46.616Z,9.90
2018-12-22T02:49:15.252Z,9.90
2018-12-22T02:51:43.396Z,9.90
2018-12-22T02:54:11.512Z,9.90
2018-12-22T02:56:39.928Z,9.80
2018-12-22T02:59:08.071Z,9.80
2018-12-22T03:01:36.239Z,9.80
2018-12-22T03:04:04.760Z,9.80
2018-12-22T03:06:32.993Z,9.80
2018-12-22T03:09:01.122Z,9.80
2018-12-22T03:11:29.592Z,9.80
2018-12-22T03:13:57.749Z,9.80
2018-12-22T03:16:25.948Z,9.80
2018-12-22T03:18:54.418Z,9.80
2018-12-22T03:21:22.536Z,9.90
2018-12-22T03:23:50.676Z,9.90
2018-12-22T03:26:19.447Z,9.90
2018-12-22T03:28:47.680Z,9.90
2018-12-22T03:31:15.996Z,9.90
2018-12-22T03:33:44.393Z,9.90
2018-12-22T03:36:12.516Z,10.00
2018-12-22T03:38:40.656Z,9.90
2018-12-22T03:41:09.236Z,9.90
2018-12-22T03:43:37.356Z,9.90
2018-12-22T03:46:05.504Z,9.90
2018-12-22T03:48:33.944Z,9.90
2018-12-22T03:51:02.045Z,9.90
2018-12-22T03:53:30.192Z,10.00
2018-12-22T03:55:58.585Z,10.00
2018-12-22T03:58:26.746Z,10.00
2018-12-22T04:00:54.886Z,10.00
2018-12-22T04:03:23.419Z,10.10
2018-12-22T04:05:51.631Z,10.10
2018-12-22T04:08:19.763Z,10.10
2018-12-22T04:10:48.279Z,10.00
2018-12-22T04:13:16.612Z,10.00
2018-12-22T04:15:44.752Z,10.00
2018-12-22T04:18:13.053Z,10.00
2018-12-22T04:20:41.183Z,10.00
2018-12-22T04:23:09.324Z,10.00
2018-12-22T04:25:37.707Z,10.00
2018-12-22T04:28:05.856Z,10.00
2018-12-22T04:30:34.006Z,9.90
2018-12-22T04:33:02.430Z,10.00
2018-12-22T04:35:30.654Z,9.90
2018-12-22T04:37:58.956Z,9.90
2018-12-22T04:40:27.374Z,9.90
2018-12-22T04:42:55.491Z,9.80
2018-12-22T04:45:23.629Z,9.80
2018-12-22T04:47:52.084Z,9.80
2018-12-22T04:50:20.264Z,9.70
2018-12-22T04:52:48.387Z,9.70
2018-12-22T04:55:16.912Z,9.70
2018-12-22T04:57:45.050Z,9.70
2018-12-22T05:00:14.083Z,9.70
2018-12-22T05:02:42.373Z,9.70
2018-12-22T05:05:10.740Z,9.60
2018-12-22T05:07:38.875Z,9.60
2018-12-22T05:10:07.560Z,9.60
2018-12-22T05:12:35.684Z,9.70
2018-12-22T05:15:04.107Z,9.70
2018-12-22T05:17:32.347Z,9.70
2018-12-22T05:20:00.592Z,9.70
2018-12-22T05:22:28.711Z,9.80
2018-12-22T05:24:57.157Z,9.70
2018-12-22T05:27:25.297Z,9.70
2018-12-22T05:29:53.475Z,9.70
2018-12-22T05:32:21.791Z,9.70
2018-12-22T05:34:49.934Z,9.70
2018-12-22T05:37:18.088Z,9.70
2018-12-22T05:39:46.521Z,9.80
2018-12-22T05:42:14.647Z,9.80
2018-12-22T05:44:42.768Z,9.70
2018-12-22T05:47:11.463Z,9.70
2018-12-22T05:49:39.683Z,9.80
2018-12-22T05:52:07.819Z,9.80
2018-12-22T05:54:38.264Z,9.70
2018-12-22T05:57:06.480Z,9.70
2018-12-22T05:59:34.699Z,9.70
2018-12-22T06:02:03.614Z,9.80
2018-12-22T06:04:33.699Z,9.80
2018-12-22T06:07:01.806Z,9.80
2018-12-22T06:09:30.458Z,9.80
2018-12-22T06:11:59.229Z,9.70
2018-12-22T06:14:29.370Z,9.70
2018-12-22T06:17:01.558Z,9.60
2018-12-22T06:19:29.672Z,9.60
2018-12-22T06:21:57.793Z,9.50
2018-12-22T06:24:26.259Z,9.60
2018-12-22T06:26:54.382Z,9.60
2018-12-22T06:29:22.516Z,9.60
2018-12-22T06:31:50.952Z,9.60
2018-12-22T06:34:19.155Z,9.60
2018-12-22T06:36:47.332Z,9.70
2018-12-22T06:39:15.951Z,9.70
2018-12-22T06:41:44.175Z,9.70
2018-12-22T06:44:12.440Z,9.70
2018-12-22T06:46:41.827Z,9.70
2018-12-22T06:49:10.829Z,9.60
2018-12-22T06:51:39.646Z,9.60
2018-12-22T06:54:08.052Z,9.60
2018-12-22T06:56:36.172Z,9.60
2018-12-22T06:59:04.331Z,9.60
2018-12-22T07:01:32.723Z,9.60
2018-12-22T07:04:00.948Z,9.60
2018-12-22T07:06:29.372Z,9.60
2018-12-22T07:08:57.976Z,9.60
2018-12-22T07:11:26.121Z,9.60
2018-12-22T07:13:54.516Z,9.60
2018-12-22T07:16:22.743Z,9.60
2018-12-22T07:18:51.108Z,9.50
2018-12-22T07:21:19.271Z,9.60
2018-12-22T07:23:47.633Z,9.60
2018-12-22T07:26:15.772Z,9.60
2018-12-22T07:28:43.941Z,9.60
2018-12-22T07:31:12.223Z,9.60
2018-12-22T07:33:40.424Z,9.50
2018-12-22T07:36:08.630Z,9.50
2018-12-22T07:38:37.208Z,9.50
2018-12-22T07:41:05.387Z,9.50
2018-12-22T07:43:33.520Z,9.50
2018-12-22T07:46:02.153Z,9.50
2018-12-22T07:48:30.290Z,9.60
2018-12-22T07:50:58.723Z,9.50
2018-12-22T07:53:27.290Z,9.50
2018-12-22T07:55:55.434Z,9.50
2018-12-22T07:58:23.573Z,9.50
2018-12-22T08:00:52.415Z,9.50
2018-12-22T08:03:20.543Z,9.50
2018-12-22T08:05:48.698Z,9.60
2018-12-22T08:08:17.263Z,9.50
2018-12-22T08:10:45.400Z,9.50
2018-12-22T08:13:13.536Z,9.50
2018-12-22T08:15:43.032Z,9.50
2018-12-22T08:18:11.398Z,9.50
2018-12-22T08:20:39.615Z,9.50
2018-12-22T08:23:09.091Z,9.50
2018-12-22T08:25:37.345Z,9.50
2018-12-22T08:28:05.465Z,9.50
2018-12-22T08:30:33.966Z,9.60
2018-12-22T08:33:02.161Z,9.60
2018-12-22T08:35:30.466Z,9.60
2018-12-22T08:37:58.771Z,9.60
2018-12-22T08:40:26.999Z,9.60
2018-12-22T08:42:55.138Z,9.70
2018-12-22T08:45:23.451Z,9.70
2018-12-22T08:47:51.567Z,9.80
2018-12-22T08:50:19.708Z,9.80
2018-12-22T08:52:47.980Z,9.80
2018-12-22T08:55:16.083Z,9.80
2018-12-22T08:57:44.224Z,9.80
2018-12-22T09:00:13.220Z,9.80
2018-12-22T09:02:41.362Z,9.90
2018-12-22T09:05:09.631Z,9.90
2018-12-22T09:07:38.060Z,9.90
2018-12-22T09:10:07.712Z,9.90
2018-12-22T09:12:35.838Z,9.90
2018-12-22T09:15:05.231Z,9.90
2018-12-22T09:17:33.339Z,10.00
2018-12-22T09:20:01.567Z,10.00
2018-12-22T09:22:29.736Z,10.00
2018-12-22T09:24:57.950Z,10.00
2018-12-22T09:27:26.450Z,10.10
2018-12-22T09:29:54.716Z,10.20
2018-12-22T09:32:23.022Z,10.10
2018-12-22T09:34:51.137Z,10.20
2018-12-22T09:37:19.322Z,10.20
2018-12-22T09:39:47.522Z,10.20
2018-12-22T09:42:15.744Z,10.30
2018-12-22T09:44:44.035Z,10.20
2018-12-22T09:47:12.184Z,10.20
2018-12-22T09:49:40.503Z,10.20
2018-12-22T09:52:08.748Z,10.20
2018-12-22T09:54:36.893Z,10.10
2018-12-22T09:57:05.095Z,10.10
2018-12-22T09:59:33.580Z,10.10
2018-12-22T10:02:01.799Z,10.10
2018-12-22T10:04:29.924Z,10.20
2018-12-22T10:06:58.555Z,10.20
2018-12-22T10:09:26.682Z,10.30
2018-12-22T10:11:54.828Z,10.30
2018-12-22T10:14:23.377Z,10.40
2018-12-22T10:16:51.714Z,10.50
2018-12-22T10:19:19.871Z,10.50
2018-12-22T10:21:48.228Z,10.50
2018-12-22T10:24:16.491Z,10.50
2018-12-22T10:26:44.650Z,10.50
2018-12-22T10:29:12.876Z,10.40
2018-12-22T10:31:41.038Z,10.50
2018-12-22T10:34:09.178Z,10.50
2018-12-22T10:36:37.520Z,10.60
2018-12-22T10:39:06.702Z,10.60
2018-12-22T10:41:34.837Z,10.60
2018-12-22T10:44:03.319Z,10.70
2018-12-22T10:46:31.463Z,10.70
2018-12-22T10:48:59.608Z,10.70
2018-12-22T10:51:27.892Z,10.70
2018-12-22T10:53:56.043Z,10.60
2018-12-22T10:56:24.181Z,10.70
2018-12-22T10:58:52.410Z,10.70
2018-12-22T11:01:26.459Z,10.80
2018-12-22T11:03:50.890Z,10.70
2018-12-22T11:06:19.494Z,10.70
2018-12-22T11:08:47.686Z,10.70
2018-12-22T11:11:15.805Z,10.60
2018-12-22T11:13:43.982Z,10.50
2018-12-22T11:16:12.128Z,10.50
2018-12-22T11:18:40.270Z,10.50
2018-12-22T11:21:08.714Z,10.50
2018-12-22T11:23:36.852Z,10.50
2018-12-22T11:26:05.055Z,10.50
2018-12-22T11:28:33.339Z,10.50
2018-12-22T11:31:01.591Z,10.50
2018-12-22T11:33:29.920Z,10.40
2018-12-22T11:35:58.518Z,10.40
2018-12-22T11:38:26.649Z,10.30
2018-12-22T11:40:54.797Z,10.30
2018-12-22T11:43:26.273Z,10.30
2018-12-22T11:45:58.709Z,10.30
2018-12-22T11:49:34.183Z,10.30
2018-12-22T11:52:07.849Z,10.30
2018-12-22T11:54:40.150Z,10.40
2018-12-22T11:57:12.788Z,10.50
2018-12-22T11:59:44.199Z,10.60
2018-12-22T12:02:14.073Z,10.60
2018-12-22T12:04:45.390Z,10.60
2018-12-22T12:07:14.629Z,10.70
2018-12-22T12:09:44.121Z,10.80
2018-12-22T12:12:13.355Z,10.80
2018-12-22T12:14:43.311Z,10.80
2018-12-22T12:17:24.515Z,10.90
2018-12-22T12:19:53.590Z,10.90
2018-12-22T12:22:22.958Z,10.90
2018-12-22T12:24:52.396Z,10.90
2018-12-22T12:27:20.718Z,10.90
2018-12-22T12:29:49.045Z,10.90
2018-12-22T12:32:17.605Z,10.90
2018-12-22T12:34:46.001Z,10.80
2018-12-22T12:37:16.249Z,10.80
2018-12-22T12:39:47.586Z,10.80
2018-12-22T12:42:18.342Z,10.80
2018-12-22T12:44:48.967Z,10.80
2018-12-22T12:47:19.349Z,10.80
2018-12-22T12:49:49.884Z,10.80
2018-12-22T12:52:21.145Z,10.80
2018-12-22T12:54:52.395Z,10.80
2018-12-22T12:57:23.680Z,10.80
2018-12-22T12:59:54.949Z,10.80
2018-12-22T13:02:25.408Z,10.70
2018-12-22T13:04:56.664Z,10.70
2018-12-22T13:07:27.553Z,10.70
2018-12-22T13:09:58.551Z,10.70
2018-12-22T13:12:32.911Z,10.70
2018-12-22T13:15:03.835Z,10.70
2018-12-22T13:17:34.825Z,10.60
2018-12-22T13:20:07.104Z,10.60
2018-12-22T13:22:35.373Z,10.60
2018-12-22T13:25:03.706Z,10.60
2018-12-22T13:27:32.040Z,10.70
2018-12-22T13:30:00.247Z,10.70
2018-12-22T13:32:29.254Z,10.70
2018-12-22T13:34:58.914Z,10.70
2018-12-22T13:37:29.247Z,10.70
2018-12-22T13:39:59.097Z,10.70
2018-12-22T13:42:28.936Z,10.70
2018-12-22T13:44:58.578Z,10.70
2018-12-22T13:47:29.956Z,10.70
2018-12-22T13:50:00.029Z,10.70
2018-12-22T13:52:29.746Z,10.70
2018-12-22T13:54:59.776Z,10.70
2018-12-22T13:57:29.471Z,10.70
2018-12-22T13:59:58.968Z,10.60
2018-12-22T14:02:28.921Z,10.60
2018-12-22T14:04:58.665Z,10.60
2018-12-22T14:07:28.422Z,10.60
2018-12-22T14:09:58.990Z,10.60
2018-12-22T14:12:28.892Z,10.60
2018-12-22T14:15:00.308Z,10.60
2018-12-22T14:17:33.404Z,10.60
2018-12-22T14:20:05.803Z,10.60
2018-12-22T14:22:34.804Z,10.50
2018-12-22T14:25:05.437Z,10.50
2018-12-22T14:27:34.628Z,10.50
2018-12-22T14:30:02.950Z,10.50
2018-12-22T14:32:31.148Z,10.50
2018-12-22T14:35:10.211Z,10.50
2018-12-22T14:37:38.547Z,10.50
2018-12-22T14:40:08.214Z,10.40
2018-12-22T14:42:36.649Z,10.50
2018-12-22T14:45:06.532Z,10.40
2018-12-22T14:47:34.795Z,10.50
2018-12-22T14:50:03.297Z,10.40
2018-12-22T14:52:31.445Z,10.40
2018-12-22T14:54:59.638Z,10.40
2018-12-22T14:57:30.516Z,10.40
2018-12-22T14:59:58.656Z,10.40
2018-12-22T15:02:35.174Z,10.40
2018-12-22T15:04:58.227Z,10.40
2018-12-22T15:07:26.416Z,10.40
2018-12-22T15:09:54.543Z,10.30
2018-12-22T15:12:23.255Z,10.30
2018-12-22T15:14:51.458Z,10.30
2018-12-22T15:17:19.614Z,10.20
2018-12-22T15:19:47.870Z,10.20
2018-12-22T15:22:16.083Z,10.30
2018-12-22T15:24:44.234Z,10.20
2018-12-22T15:27:12.516Z,10.20
2018-12-22T15:29:40.676Z,10.10
2018-12-22T15:32:08.808Z,10.10
2018-12-22T15:34:37.431Z,10.10
2018-12-22T15:37:05.730Z,10.10
2018-12-22T15:39:33.857Z,10.10
2018-12-22T15:42:02.256Z,10.20
2018-12-22T15:44:30.383Z,10.10
2018-12-22T15:46:58.610Z,10.10
2018-12-22T15:49:26.969Z,10.10
2018-12-22T15:51:55.092Z,10.10
2018-12-22T15:54:23.425Z,10.10
2018-12-22T15:56:51.848Z,10.00
2018-12-22T15:59:20.060Z,10.10
2018-12-22T16:01:48.300Z,10.10
2018-12-22T16:04:16.620Z,10.10
2018-12-22T16:06:44.782Z,10.00
2018-12-22T16:09:13.155Z,10.00
2018-12-22T16:11:41.648Z,10.10
2018-12-22T16:14:09.793Z,10.10
2018-12-22T16:16:37.914Z,10.00
2018-12-22T16:19:06.195Z,10.00
2018-12-22T16:21:34.407Z,10.00
2018-12-22T16:24:02.695Z,9.90
2018-12-22T16:26:33.149Z,9.90
2018-12-22T16:29:09.564Z,9.90
2018-12-22T16:31:37.864Z,9.90
2018-12-22T16:34:08.989Z,9.80
2018-12-22T16:36:40.929Z,9.80
2018-12-22T16:39:12.023Z,9.80
2018-12-22T16:41:42.840Z,9.80
2018-12-22T16:44:16.154Z,9.80
2018-12-22T16:46:46.740Z,9.90
2018-12-22T16:49:16.694Z,9.80
2018-12-22T16:51:54.038Z,9.90
2018-12-22T16:54:25.204Z,9.90
2018-12-22T16:56:57.901Z,9.80
2018-12-22T16:59:29.745Z,9.80
2018-12-22T17:02:09.686Z,9.80
2018-12-22T17:04:41.274Z,9.80
2018-12-22T17:07:11.362Z,9.80
2018-12-22T17:09:42.009Z,9.80
2018-12-22T17:12:12.829Z,9.90
2018-12-22T17:14:43.051Z,9.80
2018-12-22T17:17:13.383Z,9.80
2018-12-22T17:19:44.162Z,9.80
2018-12-22T17:22:24.488Z,9.80
2018-12-22T17:24:59.955Z,9.80
2018-12-22T17:27:30.587Z,9.80
2018-12-22T17:29:59.492Z,9.80
2018-12-22T17:32:28.515Z,9.80
2018-12-22T17:34:57.496Z,9.80
2018-12-22T17:37:25.673Z,9.80
2018-12-22T17:39:55.930Z,9.80
2018-12-22T17:42:24.438Z,9.80
2018-12-22T17:44:52.606Z,9.80
2018-12-22T17:47:20.818Z,9.70
2018-12-22T17:49:49.467Z,9.70
2018-12-22T17:52:17.631Z,9.70
2018-12-22T17:54:45.807Z,9.70
2018-12-22T17:57:14.601Z,9.70
2018-12-22T17:59:42.754Z,9.70
2018-12-22T18:02:10.973Z,9.70
2018-12-22T18:04:39.402Z,9.70
2018-12-22T18:07:07.673Z,9.70
2018-12-22T18:09:35.834Z,9.70
2018-12-22T18:12:04.561Z,9.70
2018-12-22T18:14:32.766Z,9.60
2018-12-22T18:17:00.985Z,9.60
2018-12-22T18:19:29.419Z,9.60
2018-12-22T18:21:57.570Z,9.60
2018-12-22T18:24:26.100Z,9.50
2018-12-22T18:26:54.543Z,9.50
2018-12-22T18:29:22.712Z,9.50
2018-12-22T18:31:50.938Z,9.50
2018-12-22T18:34:19.380Z,9.50
2018-12-22T18:36:47.581Z,9.50
2018-12-22T18:39:15.838Z,9.50
2018-12-22T18:41:44.827Z,9.50
2018-12-22T18:44:13.030Z,9.50
2018-12-22T18:46:41.206Z,9.40
2018-12-22T18:49:09.670Z,9.50
2018-12-22T18:51:37.947Z,9.40
2018-12-22T18:54:06.103Z,9.50
2018-12-22T18:56:34.426Z,9.40
2018-12-22T18:59:02.639Z,9.40
2018-12-22T19:01:30.974Z,9.40
2018-12-22T19:03:59.284Z,9.40
2018-12-22T19:06:27.470Z,9.40
2018-12-22T19:08:58.564Z,9.40
2018-12-22T19:11:26.983Z,9.40
2018-12-22T19:13:55.123Z,9.30
2018-12-22T19:16:23.274Z,9.30
2018-12-22T19:18:51.752Z,9.30
2018-12-22T19:21:19.966Z,9.30
2018-12-22T19:23:48.160Z,9.20
2018-12-22T19:26:16.572Z,9.20
2018-12-22T19:28:44.684Z,9.30
2018-12-22T19:31:12.826Z,9.20
2018-12-22T19:33:41.373Z,9.20
2018-12-22T19:36:09.516Z,9.10
2018-12-22T19:38:37.878Z,9.10
2018-12-22T19:41:06.516Z,9.20
2018-12-22T19:43:34.700Z,9.10
2018-12-22T19:46:02.942Z,9.20
2018-12-22T19:48:31.750Z,9.20
2018-12-22T19:51:00.643Z,9.20
2018-12-22T19:53:28.781Z,9.20
2018-12-22T19:55:57.154Z,9.10
2018-12-22T19:58:25.265Z,9.20
2018-12-22T20:00:53.520Z,9.10
2018-12-22T20:03:22.452Z,9.10
2018-12-22T20:05:50.574Z,9.20
2018-12-22T20:08:18.713Z,9.20
2018-12-22T20:10:47.103Z,9.20
2018-12-22T20:13:15.270Z,9.20
2018-12-22T20:15:43.384Z,9.20
2018-12-22T20:18:11.707Z,9.20
2018-12-22T20:20:40.028Z,9.20
2018-12-22T20:23:08.170Z,9.20
2018-12-22T20:25:36.575Z,9.20
2018-12-22T20:28:04.954Z,9.20
2018-12-22T20:30:33.235Z,9.10
2018-12-22T20:33:01.873Z,9.20
2018-12-22T20:35:30.007Z,9.10
2018-12-22T20:37:58.153Z,9.10
2018-12-22T20:40:26.740Z,9.00
2018-12-22T20:42:54.951Z,9.00
2018-12-22T20:45:23.087Z,9.00
2018-12-22T20:47:51.436Z,9.00
2018-12-22T20:50:19.587Z,8.90
2018-12-22T20:52:47.756Z,8.90
2018-12-22T20:55:16.408Z,8.90
2018-12-22T20:57:44.623Z,8.90
2018-12-22T21:00:12.942Z,8.80
2018-12-22T21:02:41.395Z,8.80
2018-12-22T21:05:10.923Z,8.70
2018-12-22T21:07:40.421Z,8.80
2018-12-22T21:10:08.911Z,8.70
2018-12-22T21:12:37.068Z,8.70
2018-12-22T21:15:06.048Z,8.60
2018-12-22T21:17:34.497Z,8.60
2018-12-22T21:20:02.971Z,8.50
2018-12-22T21:22:31.178Z,8.50
2018-12-22T21:25:00.477Z,8.50
2018-12-22T21:27:28.632Z,8.50
2018-12-22T21:29:56.799Z,8.50
2018-12-22T21:32:25.199Z,8.60
2018-12-22T21:34:53.390Z,8.60
2018-12-22T21:37:21.846Z,8.60
2018-12-22T21:39:50.146Z,8.60
2018-12-22T21:42:18.292Z,8.60
2018-12-22T21:44:46.459Z,8.70
2018-12-22T21:47:14.975Z,8.70
2018-12-22T21:49:43.340Z,8.80
2018-12-22T21:52:11.472Z,8.80
2018-12-22T21:54:39.939Z,8.80
2018-12-22T21:57:08.081Z,8.80
2018-12-22T21:59:36.294Z,8.80
2018-12-22T22:02:05.076Z,8.80
2018-12-22T22:04:36.967Z,8.90
2018-12-22T22:07:03.451Z,8.90
2018-12-22T22:09:32.063Z,8.80
2018-12-22T22:12:00.303Z,8.80
2018-12-22T22:14:28.528Z,8.80
2018-12-22T22:16:57.220Z,8.80
2018-12-22T22:19:25.548Z,8.80
2018-12-22T22:21:53.792Z,8.80
2018-12-22T22:24:22.210Z,8.80
2018-12-22T22:26:50.347Z,8.80
2018-12-22T22:29:18.498Z,8.80
2018-12-22T22:31:46.848Z,8.80
2018-12-22T22:34:15.367Z,8.90
2018-12-22T22:36:43.601Z,8.90
2018-12-22T22:39:11.976Z,8.90
2018-12-22T22:41:40.108Z,8.90
2018-12-22T22:44:08.244Z,8.90
2018-12-22T22:46:36.629Z,8.90
2018-12-22T22:49:04.819Z,8.90
2018-12-22T22:51:32.974Z,8.90
2018-12-22T22:54:01.412Z,8.90
2018-12-22T22:56:29.675Z,8.90
2018-12-22T22:58:57.931Z,8.90
2018-12-22T23:01:26.666Z,9.00
2018-12-22T23:03:54.804Z,8.90
2018-12-22T23:06:23.118Z,9.00
2018-12-22T23:08:51.463Z,8.90
2018-12-22T23:11:19.626Z,9.00
2018-12-22T23:13:47.773Z,9.00
2018-12-22T23:16:16.139Z,9.00
2018-12-22T23:18:44.264Z,9.00
2018-12-22T23:21:12.458Z,9.00
2018-12-22T23:23:41.588Z,9.00
2018-12-22T23:26:09.747Z,9.00
2018-12-22T23:28:37.942Z,9.00
2018-12-22T23:31:06.475Z,9.00
2018-12-22T23:33:34.759Z,9.00
2018-12-22T23:36:02.900Z,9.00
2018-12-22T23:38:31.607Z,9.00
2018-12-22T23:40:59.798Z,9.10
2018-12-22T23:43:27.936Z,9.10
2018-12-22T23:45:56.395Z,9.00
2018-12-22T23:48:25.017Z,9.10
2018-12-22T23:50:53.163Z,9.10
2018-12-22T23:53:21.858Z,9.10
2018-12-22T23:55:50.447Z,9.10
2018-12-22T23:58:18.591Z,9.00
